createdAt,value
2018-09-30T00:07:01.746Z,23
2018-09-30T00:17:00.974Z,23
2018-09-30T00:27:00.187Z,23
2018-09-30T00:36:59.409Z,23
2018-09-30T00:46:58.631Z,22.9
2018-09-30T00:56:57.852Z,22.9
2018-09-30T01:06:57.072Z,22.9
2018-09-30T01:16:56.294Z,22.9
2018-09-30T01:26:55.515Z,22.9
2018-09-30T01:36:54.836Z,22.9
2018-09-30T01:46:53.958Z,22.9
2018-09-30T01:56:53.178Z,22.9
2018-09-30T02:06:52.404Z,22.9
2018-09-30T02:16:51.619Z,22.8
2018-09-30T02:26:50.848Z,22.9
2018-09-30T02:36:50.112Z,22.8
2018-09-30T02:46:49.284Z,22.8
2018-09-30T02:56:48.503Z,22.8
2018-09-30T03:06:47.726Z,22.8
2018-09-30T03:16:46.946Z,22.8
2018-09-30T03:26:46.169Z,22.8
2018-09-30T03:36:45.386Z,22.8
2018-09-30T03:46:44.616Z,22.8
2018-09-30T03:56:43.852Z,22.8
2018-09-30T04:06:43.052Z,22.8
2018-09-30T04:16:42.304Z,22.7
2018-09-30T04:26:41.510Z,22.7
2018-09-30T04:36:40.719Z,22.7
2018-09-30T04:46:39.941Z,22.7
2018-09-30T04:56:39.162Z,22.6
2018-09-30T05:06:38.385Z,22.6
2018-09-30T05:16:37.601Z,22.6
2018-09-30T05:26:36.831Z,22.6
2018-09-30T05:36:36.044Z,22.6
2018-09-30T05:46:35.266Z,22.6
2018-09-30T05:56:34.493Z,22.7
2018-09-30T06:06:33.707Z,22.4
2018-09-30T06:16:32.932Z,22
2018-09-30T06:26:32.149Z,21.7
2018-09-30T06:36:31.378Z,21.6
2018-09-30T06:46:30.592Z,21.8
2018-09-30T06:56:29.813Z,22.1
2018-09-30T07:06:29.038Z,22.3
2018-09-30T07:16:28.256Z,22.6
2018-09-30T07:36:26.752Z,22.9
2018-09-30T07:46:25.924Z,22.9
2018-09-30T07:56:25.152Z,23
2018-09-30T08:06:24.413Z,23.1
2018-09-30T08:16:23.653Z,23.1
2018-09-30T08:26:22.815Z,23
2018-09-30T08:36:22.038Z,22.9
2018-09-30T08:46:21.265Z,22.8
2018-09-30T08:56:20.489Z,22.8
2018-09-30T09:06:19.705Z,22.8
2018-09-30T09:16:18.927Z,22.8
2018-09-30T09:26:18.157Z,22.8
2018-09-30T09:36:17.375Z,22.8
2018-09-30T09:46:16.593Z,22.8
2018-09-30T09:56:15.819Z,22.8
2018-09-30T10:06:15.041Z,22.9
2018-09-30T10:16:14.265Z,22.9
2018-09-30T10:26:13.480Z,22.9
2018-09-30T10:36:12.706Z,22.9
2018-09-30T10:46:11.924Z,22.8
2018-09-30T10:56:11.148Z,22.6
2018-09-30T11:06:10.370Z,22.7
2018-09-30T11:16:09.732Z,22.8
2018-09-30T11:26:08.812Z,22.9
2018-09-30T11:36:08.034Z,22.9
2018-09-30T11:46:07.250Z,22.9
2018-09-30T11:56:06.475Z,22.9
2018-09-30T12:06:05.699Z,22.9
2018-09-30T12:16:04.919Z,22.9
2018-09-30T12:26:04.131Z,22.9
2018-09-30T12:36:03.357Z,22.9
2018-09-30T12:46:02.583Z,22.8
2018-09-30T12:56:01.799Z,22.8
2018-09-30T13:06:01.018Z,22.8
2018-09-30T13:16:00.241Z,22.7
2018-09-30T13:25:59.456Z,22.7
2018-09-30T13:35:58.680Z,22.3
2018-09-30T13:45:57.902Z,22.3
2018-09-30T13:55:57.130Z,22.3
2018-09-30T14:05:56.343Z,22.3
2018-09-30T14:15:55.559Z,22.3
2018-09-30T14:25:54.782Z,22.3
2018-09-30T14:35:54.080Z,22.2
2018-09-30T14:45:53.228Z,22.1
2018-09-30T14:55:52.440Z,22.1
2018-09-30T15:05:51.666Z,22
2018-09-30T15:15:50.886Z,22
2018-09-30T15:25:50.104Z,22
2018-09-30T15:35:49.324Z,22
2018-09-30T15:45:48.552Z,22.1
2018-09-30T15:55:47.765Z,22.1
2018-09-30T16:05:46.986Z,22.2
2018-09-30T16:15:46.213Z,22.3
2018-09-30T16:25:45.429Z,22.3
2018-09-30T16:35:44.651Z,22.3
2018-09-30T16:45:43.871Z,22.4
2018-09-30T16:55:43.120Z,22.4
2018-09-30T17:05:42.311Z,22.3
2018-09-30T17:15:41.538Z,22.3
2018-09-30T17:25:40.760Z,22.4
2018-09-30T17:35:39.973Z,22.4
2018-09-30T17:45:39.192Z,22.4
2018-09-30T17:55:38.412Z,22.4
2018-09-30T18:05:37.634Z,22.5
2018-09-30T18:15:36.852Z,22.5
2018-09-30T18:25:36.074Z,22.4
2018-09-30T18:35:35.292Z,22.4
2018-09-30T18:45:34.513Z,22.4
2018-09-30T18:55:33.733Z,22.4
2018-09-30T19:05:32.996Z,22.4
2018-09-30T19:15:32.173Z,22.4
2018-09-30T19:25:31.389Z,22.4
2018-09-30T19:35:30.615Z,22.4
2018-09-30T19:45:29.831Z,22.3
2018-09-30T19:55:29.060Z,22.3
2018-09-30T20:05:28.280Z,22.3
2018-09-30T20:15:27.494Z,22.3
2018-09-30T20:25:26.721Z,22.3
2018-09-30T20:35:25.941Z,22.3
2018-09-30T20:45:25.162Z,22.4
2018-09-30T20:55:24.379Z,22.4
2018-09-30T21:05:23.607Z,22.3
2018-09-30T21:15:22.872Z,22.3
2018-09-30T21:25:22.043Z,22.3
2018-09-30T21:35:21.265Z,22.3
2018-09-30T21:45:20.481Z,22.2
2018-09-30T21:55:19.703Z,22.1
2018-09-30T22:05:18.924Z,22.1
2018-09-30T22:15:18.148Z,22.1
2018-09-30T22:25:17.368Z,22.1
2018-09-30T22:35:16.587Z,22.1
2018-09-30T22:45:15.813Z,22.1
2018-09-30T22:55:15.024Z,22.1
2018-09-30T23:05:14.304Z,22.1
2018-09-30T23:15:13.468Z,22.1
2018-09-30T23:25:12.688Z,22
2018-09-30T23:35:11.903Z,22
2018-09-30T23:45:11.129Z,22
2018-09-30T23:55:10.351Z,22
